sensor_id;sensor_type;location;lat;lon;timestamp;P1;durP1;ratioP1;P2;durP2;ratioP2
31537;SDS011;18147;51.952;6.146;2022-10-14T00:01:46;236.80;;;35.35;;
31537;SDS011;18147;51.952;6.146;2022-10-14T00:04:12;241.77;;;36.78;;
31537;SDS011;18147;51.952;6.146;2022-10-14T00:06:38;133.98;;;31.10;;
31537;SDS011;18147;51.952;6.146;2022-10-14T00:09:05;227.45;;;33.78;;
31537;SDS011;18147;51.952;6.146;2022-10-14T00:11:33;268.45;;;37.15;;
31537;SDS011;18147;51.952;6.146;2022-10-14T00:14:04;176.85;;;33.42;;
31537;SDS011;18147;51.952;6.146;2022-10-14T00:16:36;135.88;;;29.00;;
31537;SDS011;18147;51.952;6.146;2022-10-14T00:19:03;168.18;;;27.20;;
31537;SDS011;18147;51.952;6.146;2022-10-14T00:21:29;335.58;;;38.08;;
31537;SDS011;18147;51.952;6.146;2022-10-14T00:23:55;183.02;;;27.58;;
31537;SDS011;18147;51.952;6.146;2022-10-14T00:26:27;299.23;;;36.42;;
31537;SDS011;18147;51.952;6.146;2022-10-14T00:28:55;208.82;;;32.00;;
31537;SDS011;18147;51.952;6.146;2022-10-14T00:31:24;195.60;;;30.23;;
31537;SDS011;18147;51.952;6.146;2022-10-14T00:33:50;144.27;;;28.63;;
31537;SDS011;18147;51.952;6.146;2022-10-14T00:36:16;126.50;;;26.10;;
31537;SDS011;18147;51.952;6.146;2022-10-14T00:38:44;158.95;;;27.00;;
31537;SDS011;18147;51.952;6.146;2022-10-14T00:41:13;156.02;;;22.15;;
31537;SDS011;18147;51.952;6.146;2022-10-14T00:43:50;197.68;;;26.27;;
31537;SDS011;18147;51.952;6.146;2022-10-14T00:46:21;81.40;;;23.30;;
31537;SDS011;18147;51.952;6.146;2022-10-14T00:48:53;205.77;;;27.13;;
31537;SDS011;18147;51.952;6.146;2022-10-14T00:51:20;132.40;;;23.13;;
31537;SDS011;18147;51.952;6.146;2022-10-14T00:53:48;124.47;;;21.65;;
31537;SDS011;18147;51.952;6.146;2022-10-14T00:56:16;121.68;;;23.30;;
31537;SDS011;18147;51.952;6.146;2022-10-14T00:58:46;98.13;;;23.52;;
31537;SDS011;18147;51.952;6.146;2022-10-14T01:01:11;136.95;;;25.35;;
31537;SDS011;18147;51.952;6.146;2022-10-14T01:03:38;147.52;;;25.55;;
31537;SDS011;18147;51.952;6.146;2022-10-14T01:08:57;145.65;;;24.35;;
31537;SDS011;18147;51.952;6.146;2022-10-14T01:11:38;133.48;;;24.02;;
31537;SDS011;18147;51.952;6.146;2022-10-14T01:14:19;176.43;;;26.77;;
31537;SDS011;18147;51.952;6.146;2022-10-14T01:22:59;148.52;;;20.85;;
31537;SDS011;18147;51.952;6.146;2022-10-14T01:28:19;115.88;;;21.75;;
31537;SDS011;18147;51.952;6.146;2022-10-14T01:31:02;185.75;;;24.17;;
31537;SDS011;18147;51.952;6.146;2022-10-14T01:33:34;136.63;;;25.27;;
31537;SDS011;18147;51.952;6.146;2022-10-14T01:38:43;253.88;;;27.25;;
31537;SDS011;18147;51.952;6.146;2022-10-14T01:43:44;186.35;;;25.52;;
31537;SDS011;18147;51.952;6.146;2022-10-14T01:46:14;194.80;;;25.30;;
31537;SDS011;18147;51.952;6.146;2022-10-14T01:48:43;216.38;;;26.67;;
31537;SDS011;18147;51.952;6.146;2022-10-14T01:51:15;267.00;;;28.27;;
31537;SDS011;18147;51.952;6.146;2022-10-14T01:53:50;157.55;;;24.95;;
31537;SDS011;18147;51.952;6.146;2022-10-14T01:56:22;138.63;;;23.67;;
31537;SDS011;18147;51.952;6.146;2022-10-14T01:58:49;118.75;;;22.55;;
31537;SDS011;18147;51.952;6.146;2022-10-14T02:01:17;172.05;;;26.48;;
31537;SDS011;18147;51.952;6.146;2022-10-14T02:03:45;135.32;;;23.67;;
31537;SDS011;18147;51.952;6.146;2022-10-14T02:06:25;243.10;;;28.42;;
31537;SDS011;18147;51.952;6.146;2022-10-14T02:09:11;219.95;;;27.58;;
31537;SDS011;18147;51.952;6.146;2022-10-14T02:11:47;122.90;;;25.52;;
31537;SDS011;18147;51.952;6.146;2022-10-14T02:14:38;182.25;;;27.02;;
31537;SDS011;18147;51.952;6.146;2022-10-14T02:19:49;227.90;;;31.25;;
31537;SDS011;18147;51.952;6.146;2022-10-14T02:22:24;244.57;;;32.38;;
31537;SDS011;18147;51.952;6.146;2022-10-14T02:25:11;139.57;;;26.58;;
31537;SDS011;18147;51.952;6.146;2022-10-14T02:27:44;96.20;;;24.17;;
31537;SDS011;18147;51.952;6.146;2022-10-14T02:30:11;118.85;;;25.27;;
31537;SDS011;18147;51.952;6.146;2022-10-14T02:32:39;95.43;;;24.80;;
31537;SDS011;18147;51.952;6.146;2022-10-14T02:35:10;84.07;;;23.27;;
31537;SDS011;18147;51.952;6.146;2022-10-14T02:37:39;130.25;;;25.30;;
31537;SDS011;18147;51.952;6.146;2022-10-14T02:40:22;184.77;;;28.52;;
31537;SDS011;18147;51.952;6.146;2022-10-14T02:42:53;135.30;;;25.42;;
31537;SDS011;18147;51.952;6.146;2022-10-14T02:45:18;106.32;;;25.08;;
31537;SDS011;18147;51.952;6.146;2022-10-14T02:47:45;159.57;;;26.45;;
31537;SDS011;18147;51.952;6.146;2022-10-14T02:50:12;121.07;;;24.23;;
31537;SDS011;18147;51.952;6.146;2022-10-14T02:52:37;95.63;;;23.40;;
31537;SDS011;18147;51.952;6.146;2022-10-14T02:55:03;133.65;;;26.10;;
31537;SDS011;18147;51.952;6.146;2022-10-14T02:57:29;119.47;;;23.85;;
31537;SDS011;18147;51.952;6.146;2022-10-14T02:59:55;125.20;;;23.52;;
31537;SDS011;18147;51.952;6.146;2022-10-14T03:02:22;214.65;;;29.52;;
31537;SDS011;18147;51.952;6.146;2022-10-14T03:04:48;124.22;;;25.95;;
31537;SDS011;18147;51.952;6.146;2022-10-14T03:07:13;156.15;;;27.30;;
31537;SDS011;18147;51.952;6.146;2022-10-14T03:09:43;163.20;;;29.50;;
31537;SDS011;18147;51.952;6.146;2022-10-14T03:12:09;115.25;;;24.88;;
31537;SDS011;18147;51.952;6.146;2022-10-14T03:14:34;215.25;;;31.65;;
31537;SDS011;18147;51.952;6.146;2022-10-14T03:17:01;231.35;;;34.58;;
31537;SDS011;18147;51.952;6.146;2022-10-14T03:19:30;104.32;;;27.58;;
31537;SDS011;18147;51.952;6.146;2022-10-14T03:21:55;96.38;;;26.85;;
31537;SDS011;18147;51.952;6.146;2022-10-14T03:24:21;187.32;;;31.92;;
31537;SDS011;18147;51.952;6.146;2022-10-14T03:26:58;140.95;;;28.17;;
31537;SDS011;18147;51.952;6.146;2022-10-14T03:29:24;142.77;;;27.40;;
31537;SDS011;18147;51.952;6.146;2022-10-14T03:31:56;112.73;;;28.30;;
31537;SDS011;18147;51.952;6.146;2022-10-14T03:34:28;152.95;;;29.92;;
31537;SDS011;18147;51.952;6.146;2022-10-14T03:37:02;147.80;;;32.42;;
31537;SDS011;18147;51.952;6.146;2022-10-14T03:39:29;144.63;;;32.03;;
31537;SDS011;18147;51.952;6.146;2022-10-14T03:42:01;157.02;;;35.97;;
31537;SDS011;18147;51.952;6.146;2022-10-14T03:44:33;146.88;;;35.03;;
31537;SDS011;18147;51.952;6.146;2022-10-14T03:47:18;159.18;;;37.67;;
31537;SDS011;18147;51.952;6.146;2022-10-14T03:49:44;164.60;;;39.88;;
31537;SDS011;18147;51.952;6.146;2022-10-14T03:52:32;176.13;;;38.53;;
31537;SDS011;18147;51.952;6.146;2022-10-14T03:55:04;166.35;;;39.95;;
31537;SDS011;18147;51.952;6.146;2022-10-14T03:57:30;157.80;;;38.08;;
31537;SDS011;18147;51.952;6.146;2022-10-14T03:59:57;157.02;;;39.70;;
31537;SDS011;18147;51.952;6.146;2022-10-14T04:02:38;171.52;;;45.47;;
31537;SDS011;18147;51.952;6.146;2022-10-14T04:05:06;191.15;;;41.65;;
31537;SDS011;18147;51.952;6.146;2022-10-14T04:07:32;182.93;;;43.63;;
31537;SDS011;18147;51.952;6.146;2022-10-14T04:09:58;224.25;;;46.20;;
31537;SDS011;18147;51.952;6.146;2022-10-14T04:12:24;195.48;;;44.42;;
31537;SDS011;18147;51.952;6.146;2022-10-14T04:15:05;163.20;;;41.30;;
31537;SDS011;18147;51.952;6.146;2022-10-14T04:17:40;157.18;;;43.92;;
31537;SDS011;18147;51.952;6.146;2022-10-14T04:20:10;153.98;;;40.00;;
31537;SDS011;18147;51.952;6.146;2022-10-14T04:22:36;155.40;;;40.80;;
31537;SDS011;18147;51.952;6.146;2022-10-14T04:25:03;164.93;;;42.28;;
31537;SDS011;18147;51.952;6.146;2022-10-14T04:27:30;151.50;;;42.92;;
31537;SDS011;18147;51.952;6.146;2022-10-14T04:30:03;146.80;;;42.78;;
31537;SDS011;18147;51.952;6.146;2022-10-14T04:32:40;137.05;;;41.38;;
31537;SDS011;18147;51.952;6.146;2022-10-14T04:35:06;140.43;;;40.65;;
31537;SDS011;18147;51.952;6.146;2022-10-14T04:37:33;163.48;;;41.45;;
31537;SDS011;18147;51.952;6.146;2022-10-14T04:40:04;137.93;;;40.13;;
31537;SDS011;18147;51.952;6.146;2022-10-14T04:42:33;153.75;;;42.97;;
31537;SDS011;18147;51.952;6.146;2022-10-14T04:45:03;152.45;;;42.42;;
31537;SDS011;18147;51.952;6.146;2022-10-14T04:47:42;140.18;;;41.72;;
31537;SDS011;18147;51.952;6.146;2022-10-14T04:50:08;132.35;;;41.92;;
31537;SDS011;18147;51.952;6.146;2022-10-14T04:52:35;132.45;;;42.83;;
31537;SDS011;18147;51.952;6.146;2022-10-14T04:55:06;136.57;;;38.27;;
31537;SDS011;18147;51.952;6.146;2022-10-14T04:57:36;150.77;;;42.70;;
31537;SDS011;18147;51.952;6.146;2022-10-14T05:00:04;134.82;;;41.90;;
31537;SDS011;18147;51.952;6.146;2022-10-14T05:02:59;136.10;;;41.88;;
31537;SDS011;18147;51.952;6.146;2022-10-14T05:05:31;133.13;;;40.88;;
31537;SDS011;18147;51.952;6.146;2022-10-14T05:07:58;124.82;;;40.65;;
31537;SDS011;18147;51.952;6.146;2022-10-14T05:10:37;145.70;;;43.50;;
31537;SDS011;18147;51.952;6.146;2022-10-14T05:13:07;136.80;;;43.17;;
31537;SDS011;18147;51.952;6.146;2022-10-14T05:15:36;131.30;;;42.65;;
31537;SDS011;18147;51.952;6.146;2022-10-14T05:18:12;141.52;;;42.38;;
31537;SDS011;18147;51.952;6.146;2022-10-14T05:20:49;137.20;;;43.17;;
31537;SDS011;18147;51.952;6.146;2022-10-14T05:23:16;136.65;;;41.63;;
31537;SDS011;18147;51.952;6.146;2022-10-14T05:25:42;127.55;;;41.00;;
31537;SDS011;18147;51.952;6.146;2022-10-14T05:28:08;123.30;;;40.88;;
31537;SDS011;18147;51.952;6.146;2022-10-14T05:30:34;140.70;;;42.58;;
31537;SDS011;18147;51.952;6.146;2022-10-14T05:33:00;133.88;;;41.08;;
31537;SDS011;18147;51.952;6.146;2022-10-14T05:35:25;156.65;;;45.70;;
31537;SDS011;18147;51.952;6.146;2022-10-14T05:37:55;139.73;;;42.47;;
31537;SDS011;18147;51.952;6.146;2022-10-14T05:40:21;143.65;;;42.10;;
31537;SDS011;18147;51.952;6.146;2022-10-14T05:42:49;144.80;;;40.65;;
31537;SDS011;18147;51.952;6.146;2022-10-14T05:45:18;137.45;;;43.33;;
31537;SDS011;18147;51.952;6.146;2022-10-14T05:47:49;133.52;;;41.58;;
31537;SDS011;18147;51.952;6.146;2022-10-14T05:50:16;144.25;;;44.80;;
31537;SDS011;18147;51.952;6.146;2022-10-14T05:52:44;161.77;;;44.13;;
31537;SDS011;18147;51.952;6.146;2022-10-14T05:55:16;146.02;;;39.50;;
31537;SDS011;18147;51.952;6.146;2022-10-14T05:57:43;148.57;;;41.67;;
31537;SDS011;18147;51.952;6.146;2022-10-14T06:00:10;138.65;;;44.17;;
31537;SDS011;18147;51.952;6.146;2022-10-14T06:02:42;151.43;;;42.78;;
31537;SDS011;18147;51.952;6.146;2022-10-14T06:05:09;123.90;;;41.08;;
31537;SDS011;18147;51.952;6.146;2022-10-14T06:07:34;157.50;;;43.47;;
31537;SDS011;18147;51.952;6.146;2022-10-14T06:10:00;126.50;;;42.58;;
31537;SDS011;18147;51.952;6.146;2022-10-14T06:12:25;145.13;;;43.80;;
31537;SDS011;18147;51.952;6.146;2022-10-14T06:14:51;138.88;;;43.95;;
31537;SDS011;18147;51.952;6.146;2022-10-14T06:17:17;146.30;;;45.03;;
31537;SDS011;18147;51.952;6.146;2022-10-14T06:19:43;152.38;;;44.78;;
31537;SDS011;18147;51.952;6.146;2022-10-14T06:22:09;145.68;;;42.28;;
31537;SDS011;18147;51.952;6.146;2022-10-14T06:24:34;143.20;;;44.22;;
31537;SDS011;18147;51.952;6.146;2022-10-14T06:26:59;156.45;;;42.25;;
31537;SDS011;18147;51.952;6.146;2022-10-14T06:29:25;144.38;;;43.10;;
31537;SDS011;18147;51.952;6.146;2022-10-14T06:31:55;143.48;;;41.97;;
31537;SDS011;18147;51.952;6.146;2022-10-14T06:34:20;145.32;;;43.97;;
31537;SDS011;18147;51.952;6.146;2022-10-14T06:36:47;157.38;;;45.08;;
31537;SDS011;18147;51.952;6.146;2022-10-14T06:39:13;134.93;;;42.08;;
31537;SDS011;18147;51.952;6.146;2022-10-14T06:41:39;149.07;;;44.30;;
31537;SDS011;18147;51.952;6.146;2022-10-14T06:44:07;133.82;;;42.15;;
31537;SDS011;18147;51.952;6.146;2022-10-14T06:46:32;122.65;;;39.17;;
31537;SDS011;18147;51.952;6.146;2022-10-14T06:48:58;132.57;;;41.67;;
31537;SDS011;18147;51.952;6.146;2022-10-14T06:51:23;127.38;;;40.03;;
31537;SDS011;18147;51.952;6.146;2022-10-14T06:53:49;118.60;;;36.47;;
31537;SDS011;18147;51.952;6.146;2022-10-14T06:56:14;120.57;;;39.17;;
31537;SDS011;18147;51.952;6.146;2022-10-14T06:58:39;120.60;;;36.83;;
31537;SDS011;18147;51.952;6.146;2022-10-14T07:01:06;110.32;;;36.38;;
31537;SDS011;18147;51.952;6.146;2022-10-14T07:03:35;107.63;;;35.08;;
31537;SDS011;18147;51.952;6.146;2022-10-14T07:06:03;100.10;;;32.55;;
31537;SDS011;18147;51.952;6.146;2022-10-14T07:08:30;104.93;;;33.20;;
31537;SDS011;18147;51.952;6.146;2022-10-14T07:10:55;94.30;;;31.58;;
31537;SDS011;18147;51.952;6.146;2022-10-14T07:13:21;104.32;;;32.08;;
31537;SDS011;18147;51.952;6.146;2022-10-14T07:15:47;101.90;;;32.72;;
31537;SDS011;18147;51.952;6.146;2022-10-14T07:18:13;97.88;;;32.17;;
31537;SDS011;18147;51.952;6.146;2022-10-14T07:20:39;81.97;;;28.25;;
31537;SDS011;18147;51.952;6.146;2022-10-14T07:23:04;82.57;;;29.83;;
31537;SDS011;18147;51.952;6.146;2022-10-14T07:25:29;85.07;;;27.15;;
31537;SDS011;18147;51.952;6.146;2022-10-14T07:27:56;76.75;;;26.67;;
31537;SDS011;18147;51.952;6.146;2022-10-14T07:30:22;63.13;;;23.10;;
31537;SDS011;18147;51.952;6.146;2022-10-14T07:32:48;73.72;;;26.77;;
31537;SDS011;18147;51.952;6.146;2022-10-14T07:35:13;68.60;;;23.55;;
31537;SDS011;18147;51.952;6.146;2022-10-14T07:37:39;65.65;;;23.48;;
31537;SDS011;18147;51.952;6.146;2022-10-14T07:40:05;52.92;;;19.15;;
31537;SDS011;18147;51.952;6.146;2022-10-14T07:42:31;49.50;;;20.35;;
31537;SDS011;18147;51.952;6.146;2022-10-14T07:44:58;51.47;;;20.23;;
31537;SDS011;18147;51.952;6.146;2022-10-14T07:47:23;56.35;;;19.73;;
31537;SDS011;18147;51.952;6.146;2022-10-14T07:49:49;45.10;;;17.55;;
31537;SDS011;18147;51.952;6.146;2022-10-14T07:52:15;47.35;;;17.25;;
31537;SDS011;18147;51.952;6.146;2022-10-14T07:54:40;46.55;;;18.25;;
31537;SDS011;18147;51.952;6.146;2022-10-14T07:57:06;47.25;;;17.95;;
31537;SDS011;18147;51.952;6.146;2022-10-14T07:59:31;46.85;;;19.08;;
31537;SDS011;18147;51.952;6.146;2022-10-14T08:01:57;44.65;;;18.38;;
31537;SDS011;18147;51.952;6.146;2022-10-14T08:04:23;48.33;;;19.33;;
31537;SDS011;18147;51.952;6.146;2022-10-14T08:06:49;44.00;;;18.00;;
31537;SDS011;18147;51.952;6.146;2022-10-14T08:09:15;44.45;;;18.80;;
31537;SDS011;18147;51.952;6.146;2022-10-14T08:11:42;43.53;;;18.77;;
31537;SDS011;18147;51.952;6.146;2022-10-14T08:14:08;39.05;;;19.50;;
31537;SDS011;18147;51.952;6.146;2022-10-14T08:16:35;40.15;;;17.60;;
31537;SDS011;18147;51.952;6.146;2022-10-14T08:19:03;40.05;;;18.38;;
31537;SDS011;18147;51.952;6.146;2022-10-14T08:21:30;40.47;;;17.48;;
31537;SDS011;18147;51.952;6.146;2022-10-14T08:23:56;35.35;;;17.10;;
31537;SDS011;18147;51.952;6.146;2022-10-14T08:29:02;35.72;;;17.55;;
31537;SDS011;18147;51.952;6.146;2022-10-14T08:31:29;37.13;;;17.35;;
31537;SDS011;18147;51.952;6.146;2022-10-14T08:33:55;36.05;;;16.70;;
31537;SDS011;18147;51.952;6.146;2022-10-14T08:36:21;37.08;;;16.65;;
31537;SDS011;18147;51.952;6.146;2022-10-14T08:38:47;33.80;;;17.08;;
31537;SDS011;18147;51.952;6.146;2022-10-14T08:41:22;36.55;;;17.63;;
31537;SDS011;18147;51.952;6.146;2022-10-14T08:46:54;36.97;;;17.58;;
31537;SDS011;18147;51.952;6.146;2022-10-14T08:52:14;34.00;;;17.17;;
31537;SDS011;18147;51.952;6.146;2022-10-14T08:54:47;40.83;;;16.85;;
31537;SDS011;18147;51.952;6.146;2022-10-14T08:57:26;32.05;;;16.17;;
31537;SDS011;18147;51.952;6.146;2022-10-14T08:59:55;28.38;;;15.65;;
31537;SDS011;18147;51.952;6.146;2022-10-14T09:02:32;30.23;;;15.70;;
31537;SDS011;18147;51.952;6.146;2022-10-14T09:05:04;32.50;;;14.68;;
31537;SDS011;18147;51.952;6.146;2022-10-14T09:07:30;30.45;;;15.63;;
31537;SDS011;18147;51.952;6.146;2022-10-14T09:10:02;25.00;;;14.18;;
31537;SDS011;18147;51.952;6.146;2022-10-14T09:12:32;26.85;;;14.02;;
31537;SDS011;18147;51.952;6.146;2022-10-14T09:15:17;32.80;;;15.70;;
31537;SDS011;18147;51.952;6.146;2022-10-14T09:20:27;21.95;;;13.38;;
31537;SDS011;18147;51.952;6.146;2022-10-14T09:23:38;26.73;;;14.30;;
31537;SDS011;18147;51.952;6.146;2022-10-14T09:25:49;24.55;;;13.18;;
31537;SDS011;18147;51.952;6.146;2022-10-14T09:28:23;24.13;;;13.43;;
31537;SDS011;18147;51.952;6.146;2022-10-14T09:30:55;25.88;;;13.90;;
31537;SDS011;18147;51.952;6.146;2022-10-14T09:33:21;24.40;;;14.40;;
31537;SDS011;18147;51.952;6.146;2022-10-14T09:35:49;26.20;;;14.70;;
31537;SDS011;18147;51.952;6.146;2022-10-14T09:38:15;27.65;;;15.38;;
31537;SDS011;18147;51.952;6.146;2022-10-14T09:40:44;28.17;;;14.93;;
31537;SDS011;18147;51.952;6.146;2022-10-14T09:50:53;25.93;;;15.17;;
31537;SDS011;18147;51.952;6.146;2022-10-14T09:55:54;26.65;;;14.95;;
31537;SDS011;18147;51.952;6.146;2022-10-14T10:01:05;23.73;;;14.07;;
31537;SDS011;18147;51.952;6.146;2022-10-14T10:03:36;23.08;;;14.75;;
31537;SDS011;18147;51.952;6.146;2022-10-14T10:06:06;22.02;;;13.55;;
31537;SDS011;18147;51.952;6.146;2022-10-14T10:09:18;23.05;;;13.13;;
31537;SDS011;18147;51.952;6.146;2022-10-14T10:11:37;20.88;;;12.00;;
31537;SDS011;18147;51.952;6.146;2022-10-14T10:14:16;23.75;;;14.25;;
31537;SDS011;18147;51.952;6.146;2022-10-14T10:16:45;21.23;;;13.48;;
31537;SDS011;18147;51.952;6.146;2022-10-14T10:21:45;23.45;;;14.35;;
31537;SDS011;18147;51.952;6.146;2022-10-14T10:24:21;23.98;;;14.10;;
31537;SDS011;18147;51.952;6.146;2022-10-14T10:26:48;18.48;;;11.35;;
31537;SDS011;18147;51.952;6.146;2022-10-14T10:29:24;19.05;;;12.52;;
31537;SDS011;18147;51.952;6.146;2022-10-14T10:31:59;17.90;;;12.30;;
31537;SDS011;18147;51.952;6.146;2022-10-14T10:36:56;17.55;;;11.73;;
31537;SDS011;18147;51.952;6.146;2022-10-14T10:39:35;18.05;;;10.80;;
31537;SDS011;18147;51.952;6.146;2022-10-14T10:44:56;15.10;;;11.07;;
31537;SDS011;18147;51.952;6.146;2022-10-14T10:47:36;15.80;;;11.55;;
31537;SDS011;18147;51.952;6.146;2022-10-14T10:52:47;14.27;;;10.20;;
31537;SDS011;18147;51.952;6.146;2022-10-14T10:55:25;20.05;;;11.57;;
31537;SDS011;18147;51.952;6.146;2022-10-14T11:03:35;16.35;;;10.75;;
31537;SDS011;18147;51.952;6.146;2022-10-14T11:09:11;16.95;;;10.57;;
31537;SDS011;18147;51.952;6.146;2022-10-14T11:17:57;13.50;;;10.57;;
31537;SDS011;18147;51.952;6.146;2022-10-14T11:31:40;14.52;;;10.82;;
31537;SDS011;18147;51.952;6.146;2022-10-14T11:34:39;14.35;;;9.95;;
31537;SDS011;18147;51.952;6.146;2022-10-14T11:39:56;14.18;;;10.07;;
31537;SDS011;18147;51.952;6.146;2022-10-14T11:45:27;15.38;;;10.65;;
31537;SDS011;18147;51.952;6.146;2022-10-14T11:47:58;15.27;;;10.48;;
31537;SDS011;18147;51.952;6.146;2022-10-14T11:50:36;15.60;;;10.80;;
31537;SDS011;18147;51.952;6.146;2022-10-14T11:56:17;19.70;;;11.73;;
31537;SDS011;18147;51.952;6.146;2022-10-14T11:58:53;16.70;;;11.77;;
31537;SDS011;18147;51.952;6.146;2022-10-14T12:01:25;17.60;;;11.68;;
31537;SDS011;18147;51.952;6.146;2022-10-14T12:06:54;15.02;;;10.50;;
31537;SDS011;18147;51.952;6.146;2022-10-14T12:09:30;17.27;;;11.05;;
31537;SDS011;18147;51.952;6.146;2022-10-14T12:12:03;13.48;;;10.90;;
31537;SDS011;18147;51.952;6.146;2022-10-14T12:17:14;17.23;;;10.82;;
31537;SDS011;18147;51.952;6.146;2022-10-14T12:19:47;14.07;;;10.30;;
31537;SDS011;18147;51.952;6.146;2022-10-14T12:24:57;15.18;;;10.30;;
31537;SDS011;18147;51.952;6.146;2022-10-14T12:27:27;17.55;;;10.07;;
31537;SDS011;18147;51.952;6.146;2022-10-14T12:29:54;13.98;;;10.00;;
31537;SDS011;18147;51.952;6.146;2022-10-14T12:32:23;11.90;;;9.15;;
31537;SDS011;18147;51.952;6.146;2022-10-14T12:34:56;11.93;;;8.68;;
31537;SDS011;18147;51.952;6.146;2022-10-14T12:39:49;13.82;;;9.48;;
31537;SDS011;18147;51.952;6.146;2022-10-14T12:42:15;14.65;;;9.63;;
31537;SDS011;18147;51.952;6.146;2022-10-14T12:47:24;10.52;;;8.23;;
31537;SDS011;18147;51.952;6.146;2022-10-14T12:49:58;11.25;;;8.50;;
31537;SDS011;18147;51.952;6.146;2022-10-14T12:52:46;10.45;;;8.13;;
31537;SDS011;18147;51.952;6.146;2022-10-14T12:55:21;11.38;;;8.20;;
31537;SDS011;18147;51.952;6.146;2022-10-14T12:57:52;12.15;;;8.00;;
31537;SDS011;18147;51.952;6.146;2022-10-14T13:02:45;11.85;;;7.80;;
31537;SDS011;18147;51.952;6.146;2022-10-14T13:08:10;11.25;;;7.78;;
31537;SDS011;18147;51.952;6.146;2022-10-14T13:18:48;9.02;;;7.13;;
31537;SDS011;18147;51.952;6.146;2022-10-14T13:23:51;12.70;;;9.18;;
31537;SDS011;18147;51.952;6.146;2022-10-14T13:26:22;10.43;;;8.18;;
31537;SDS011;18147;51.952;6.146;2022-10-14T13:28:59;11.68;;;8.38;;
31537;SDS011;18147;51.952;6.146;2022-10-14T13:31:46;13.95;;;7.82;;
31537;SDS011;18147;51.952;6.146;2022-10-14T13:37:03;13.27;;;8.05;;
31537;SDS011;18147;51.952;6.146;2022-10-14T13:39:48;11.48;;;8.25;;
31537;SDS011;18147;51.952;6.146;2022-10-14T13:42:16;15.00;;;9.30;;
31537;SDS011;18147;51.952;6.146;2022-10-14T13:44:57;11.82;;;8.07;;
31537;SDS011;18147;51.952;6.146;2022-10-14T13:47:49;13.23;;;9.40;;
31537;SDS011;18147;51.952;6.146;2022-10-14T13:50:20;12.40;;;8.55;;
31537;SDS011;18147;51.952;6.146;2022-10-14T13:52:52;10.60;;;7.50;;
31537;SDS011;18147;51.952;6.146;2022-10-14T13:55:23;10.23;;;7.35;;
31537;SDS011;18147;51.952;6.146;2022-10-14T14:00:36;10.68;;;6.50;;
31537;SDS011;18147;51.952;6.146;2022-10-14T14:05:54;9.43;;;6.20;;
31537;SDS011;18147;51.952;6.146;2022-10-14T14:08:30;8.30;;;6.65;;
31537;SDS011;18147;51.952;6.146;2022-10-14T14:10:58;9.60;;;6.40;;
31537;SDS011;18147;51.952;6.146;2022-10-14T14:13:29;7.93;;;6.25;;
31537;SDS011;18147;51.952;6.146;2022-10-14T14:16:01;8.77;;;6.95;;
31537;SDS011;18147;51.952;6.146;2022-10-14T14:20:57;8.45;;;6.55;;
31537;SDS011;18147;51.952;6.146;2022-10-14T14:23:24;12.05;;;6.60;;
31537;SDS011;18147;51.952;6.146;2022-10-14T14:25:51;9.93;;;6.90;;
31537;SDS011;18147;51.952;6.146;2022-10-14T14:28:18;9.68;;;7.13;;
31537;SDS011;18147;51.952;6.146;2022-10-14T14:30:50;12.05;;;7.25;;
31537;SDS011;18147;51.952;6.146;2022-10-14T14:33:19;10.25;;;7.63;;
31537;SDS011;18147;51.952;6.146;2022-10-14T14:35:55;15.23;;;7.57;;
31537;SDS011;18147;51.952;6.146;2022-10-14T14:38:27;9.50;;;7.45;;
31537;SDS011;18147;51.952;6.146;2022-10-14T14:41:05;9.60;;;7.40;;
31537;SDS011;18147;51.952;6.146;2022-10-14T14:43:40;9.80;;;7.43;;
31537;SDS011;18147;51.952;6.146;2022-10-14T14:46:07;11.38;;;8.35;;
31537;SDS011;18147;51.952;6.146;2022-10-14T14:48:41;12.70;;;8.40;;
31537;SDS011;18147;51.952;6.146;2022-10-14T14:51:11;11.48;;;8.10;;
31537;SDS011;18147;51.952;6.146;2022-10-14T14:53:39;16.25;;;7.72;;
31537;SDS011;18147;51.952;6.146;2022-10-14T14:56:05;10.50;;;7.55;;
31537;SDS011;18147;51.952;6.146;2022-10-14T14:58:49;11.45;;;7.80;;
31537;SDS011;18147;51.952;6.146;2022-10-14T15:01:19;10.15;;;7.60;;
31537;SDS011;18147;51.952;6.146;2022-10-14T15:04:01;10.25;;;8.18;;
31537;SDS011;18147;51.952;6.146;2022-10-14T15:06:27;11.40;;;8.30;;
31537;SDS011;18147;51.952;6.146;2022-10-14T15:08:53;11.18;;;8.05;;
31537;SDS011;18147;51.952;6.146;2022-10-14T15:11:22;12.20;;;7.70;;
31537;SDS011;18147;51.952;6.146;2022-10-14T15:13:52;15.75;;;8.60;;
31537;SDS011;18147;51.952;6.146;2022-10-14T15:19:11;16.08;;;9.60;;
31537;SDS011;18147;51.952;6.146;2022-10-14T15:21:39;13.35;;;8.93;;
31537;SDS011;18147;51.952;6.146;2022-10-14T15:24:10;15.75;;;8.52;;
31537;SDS011;18147;51.952;6.146;2022-10-14T15:26:40;16.58;;;9.40;;
31537;SDS011;18147;51.952;6.146;2022-10-14T15:29:18;18.25;;;9.52;;
31537;SDS011;18147;51.952;6.146;2022-10-14T15:34:25;18.48;;;10.95;;
31537;SDS011;18147;51.952;6.146;2022-10-14T15:36:50;20.92;;;10.93;;
31537;SDS011;18147;51.952;6.146;2022-10-14T15:39:16;19.75;;;10.80;;
31537;SDS011;18147;51.952;6.146;2022-10-14T15:41:43;22.23;;;11.32;;
31537;SDS011;18147;51.952;6.146;2022-10-14T15:44:09;19.63;;;10.55;;
31537;SDS011;18147;51.952;6.146;2022-10-14T15:46:35;23.05;;;11.45;;
31537;SDS011;18147;51.952;6.146;2022-10-14T15:49:30;20.92;;;11.27;;
31537;SDS011;18147;51.952;6.146;2022-10-14T15:51:58;19.63;;;11.02;;
31537;SDS011;18147;51.952;6.146;2022-10-14T15:54:23;22.48;;;11.60;;
31537;SDS011;18147;51.952;6.146;2022-10-14T15:56:55;21.25;;;10.82;;
31537;SDS011;18147;51.952;6.146;2022-10-14T15:59:22;25.38;;;12.75;;
31537;SDS011;18147;51.952;6.146;2022-10-14T16:01:48;22.20;;;11.73;;
31537;SDS011;18147;51.952;6.146;2022-10-14T16:04:16;23.17;;;12.10;;
31537;SDS011;18147;51.952;6.146;2022-10-14T16:06:47;21.75;;;12.48;;
31537;SDS011;18147;51.952;6.146;2022-10-14T16:09:13;22.23;;;12.32;;
31537;SDS011;18147;51.952;6.146;2022-10-14T16:11:39;23.38;;;12.55;;
31537;SDS011;18147;51.952;6.146;2022-10-14T16:14:04;26.20;;;13.20;;
31537;SDS011;18147;51.952;6.146;2022-10-14T16:16:35;25.00;;;13.10;;
31537;SDS011;18147;51.952;6.146;2022-10-14T16:19:04;27.25;;;13.80;;
31537;SDS011;18147;51.952;6.146;2022-10-14T16:21:30;29.23;;;15.07;;
31537;SDS011;18147;51.952;6.146;2022-10-14T16:23:55;29.92;;;14.15;;
31537;SDS011;18147;51.952;6.146;2022-10-14T16:26:22;33.50;;;15.38;;
31537;SDS011;18147;51.952;6.146;2022-10-14T16:28:49;34.60;;;15.07;;
31537;SDS011;18147;51.952;6.146;2022-10-14T16:31:15;31.60;;;15.93;;
31537;SDS011;18147;51.952;6.146;2022-10-14T16:33:41;35.20;;;16.65;;
31537;SDS011;18147;51.952;6.146;2022-10-14T16:36:09;33.78;;;16.00;;
31537;SDS011;18147;51.952;6.146;2022-10-14T16:38:38;33.85;;;16.38;;
31537;SDS011;18147;51.952;6.146;2022-10-14T16:41:03;36.22;;;16.17;;
31537;SDS011;18147;51.952;6.146;2022-10-14T16:43:29;33.78;;;16.75;;
31537;SDS011;18147;51.952;6.146;2022-10-14T16:45:58;34.53;;;16.73;;
31537;SDS011;18147;51.952;6.146;2022-10-14T16:48:24;40.38;;;16.83;;
31537;SDS011;18147;51.952;6.146;2022-10-14T16:50:52;34.97;;;16.60;;